sensor_id;sensor_type;location;lat;lon;timestamp;temperature;humidity
13944;DHT22;7044;53.286;8.534;2023-02-15T00:01:19;1.90;99.90
13944;DHT22;7044;53.286;8.534;2023-02-15T00:03:48;1.90;99.90
13944;DHT22;7044;53.286;8.534;2023-02-15T00:06:16;1.80;99.90
13944;DHT22;7044;53.286;8.534;2023-02-15T00:08:44;1.70;99.90
13944;DHT22;7044;53.286;8.534;2023-02-15T00:11:12;1.70;99.90
13944;DHT22;7044;53.286;8.534;2023-02-15T00:13:39;1.60;99.90
13944;DHT22;7044;53.286;8.534;2023-02-15T00:16:09;1.60;99.90
13944;DHT22;7044;53.286;8.534;2023-02-15T00:18:36;1.60;99.90
13944;DHT22;7044;53.286;8.534;2023-02-15T00:21:06;1.60;99.90
13944;DHT22;7044;53.286;8.534;2023-02-15T00:23:33;1.60;99.90
13944;DHT22;7044;53.286;8.534;2023-02-15T00:26:05;1.50;99.90
13944;DHT22;7044;53.286;8.534;2023-02-15T00:28:32;1.50;99.90
13944;DHT22;7044;53.286;8.534;2023-02-15T00:31:04;1.50;99.90
13944;DHT22;7044;53.286;8.534;2023-02-15T00:33:31;1.60;99.90
13944;DHT22;7044;53.286;8.534;2023-02-15T00:35:58;1.60;99.90
13944;DHT22;7044;53.286;8.534;2023-02-15T00:38:28;1.60;99.90
13944;DHT22;7044;53.286;8.534;2023-02-15T00:40:55;1.60;99.90
13944;DHT22;7044;53.286;8.534;2023-02-15T00:43:23;1.60;99.90
13944;DHT22;7044;53.286;8.534;2023-02-15T00:45:50;1.60;99.90
13944;DHT22;7044;53.286;8.534;2023-02-15T00:48:17;1.70;99.90
13944;DHT22;7044;53.286;8.534;2023-02-15T00:50:45;1.60;99.90
13944;DHT22;7044;53.286;8.534;2023-02-15T00:53:12;1.60;99.90
13944;DHT22;7044;53.286;8.534;2023-02-15T00:55:40;1.60;99.90
13944;DHT22;7044;53.286;8.534;2023-02-15T00:58:07;1.70;99.90
13944;DHT22;7044;53.286;8.534;2023-02-15T01:00:34;1.70;99.90
13944;DHT22;7044;53.286;8.534;2023-02-15T01:03:01;1.60;99.90
13944;DHT22;7044;53.286;8.534;2023-02-15T01:05:28;1.70;99.90
13944;DHT22;7044;53.286;8.534;2023-02-15T01:07:56;1.60;99.90
13944;DHT22;7044;53.286;8.534;2023-02-15T01:10:22;1.50;99.90
13944;DHT22;7044;53.286;8.534;2023-02-15T01:12:51;1.50;99.90
13944;DHT22;7044;53.286;8.534;2023-02-15T01:15:18;1.50;99.90
13944;DHT22;7044;53.286;8.534;2023-02-15T01:17:46;1.50;99.90
13944;DHT22;7044;53.286;8.534;2023-02-15T01:20:17;1.50;99.90
13944;DHT22;7044;53.286;8.534;2023-02-15T01:22:44;1.50;99.90
13944;DHT22;7044;53.286;8.534;2023-02-15T01:25:12;1.50;99.90
13944;DHT22;7044;53.286;8.534;2023-02-15T01:27:39;1.50;99.90
13944;DHT22;7044;53.286;8.534;2023-02-15T01:30:08;1.50;99.90
13944;DHT22;7044;53.286;8.534;2023-02-15T01:32:35;1.50;99.90
13944;DHT22;7044;53.286;8.534;2023-02-15T01:35:02;1.60;99.90
13944;DHT22;7044;53.286;8.534;2023-02-15T01:37:30;1.60;99.90
13944;DHT22;7044;53.286;8.534;2023-02-15T01:39:57;1.60;99.90
13944;DHT22;7044;53.286;8.534;2023-02-15T01:42:27;1.70;99.90
13944;DHT22;7044;53.286;8.534;2023-02-15T01:44:55;1.90;99.90
13944;DHT22;7044;53.286;8.534;2023-02-15T01:47:29;1.80;99.90
13944;DHT22;7044;53.286;8.534;2023-02-15T01:50:04;1.80;99.90
13944;DHT22;7044;53.286;8.534;2023-02-15T01:52:34;1.80;99.90
13944;DHT22;7044;53.286;8.534;2023-02-15T01:55:03;1.70;99.90
13944;DHT22;7044;53.286;8.534;2023-02-15T01:57:31;1.80;99.90
13944;DHT22;7044;53.286;8.534;2023-02-15T01:59:59;1.80;99.90
13944;DHT22;7044;53.286;8.534;2023-02-15T02:02:28;1.80;99.90
13944;DHT22;7044;53.286;8.534;2023-02-15T02:04:59;1.80;99.90
13944;DHT22;7044;53.286;8.534;2023-02-15T02:07:30;1.90;99.90
13944;DHT22;7044;53.286;8.534;2023-02-15T02:09:59;1.90;99.90
13944;DHT22;7044;53.286;8.534;2023-02-15T02:12:28;1.80;99.90
13944;DHT22;7044;53.286;8.534;2023-02-15T02:14:55;1.80;99.90
13944;DHT22;7044;53.286;8.534;2023-02-15T02:17:32;1.90;99.90
13944;DHT22;7044;53.286;8.534;2023-02-15T02:20:17;1.90;99.90
13944;DHT22;7044;53.286;8.534;2023-02-15T02:35:19;1.90;99.90
13944;DHT22;7044;53.286;8.534;2023-02-15T02:37:53;1.90;99.90
13944;DHT22;7044;53.286;8.534;2023-02-15T02:40:28;1.90;99.90
13944;DHT22;7044;53.286;8.534;2023-02-15T02:43:02;1.90;99.90
13944;DHT22;7044;53.286;8.534;2023-02-15T02:45:35;1.90;99.90
13944;DHT22;7044;53.286;8.534;2023-02-15T02:48:08;1.80;99.90
13944;DHT22;7044;53.286;8.534;2023-02-15T02:50:39;2.10;99.90
13944;DHT22;7044;53.286;8.534;2023-02-15T02:53:06;1.70;99.90
13944;DHT22;7044;53.286;8.534;2023-02-15T02:55:37;1.60;99.90
13944;DHT22;7044;53.286;8.534;2023-02-15T02:58:07;1.50;99.90
13944;DHT22;7044;53.286;8.534;2023-02-15T03:00:39;1.50;99.90
13944;DHT22;7044;53.286;8.534;2023-02-15T03:03:09;1.50;99.90
13944;DHT22;7044;53.286;8.534;2023-02-15T03:05:41;1.40;99.90
13944;DHT22;7044;53.286;8.534;2023-02-15T03:08:11;1.40;99.90
13944;DHT22;7044;53.286;8.534;2023-02-15T03:10:39;1.40;99.90
13944;DHT22;7044;53.286;8.534;2023-02-15T03:13:07;1.50;99.90
13944;DHT22;7044;53.286;8.534;2023-02-15T03:15:38;1.50;99.90
13944;DHT22;7044;53.286;8.534;2023-02-15T03:18:26;1.50;99.90
13944;DHT22;7044;53.286;8.534;2023-02-15T03:20:56;1.50;99.90
13944;DHT22;7044;53.286;8.534;2023-02-15T03:23:25;1.40;99.90
13944;DHT22;7044;53.286;8.534;2023-02-15T03:25:58;1.40;99.90
13944;DHT22;7044;53.286;8.534;2023-02-15T03:28:29;1.40;99.90
13944;DHT22;7044;53.286;8.534;2023-02-15T03:31:00;1.30;99.90
13944;DHT22;7044;53.286;8.534;2023-02-15T03:33:28;1.30;99.90
13944;DHT22;7044;53.286;8.534;2023-02-15T03:36:01;1.30;99.90
13944;DHT22;7044;53.286;8.534;2023-02-15T03:38:33;1.30;99.90
13944;DHT22;7044;53.286;8.534;2023-02-15T03:41:02;1.40;99.90
13944;DHT22;7044;53.286;8.534;2023-02-15T03:43:41;1.40;99.90
13944;DHT22;7044;53.286;8.534;2023-02-15T03:46:13;1.30;99.90
13944;DHT22;7044;53.286;8.534;2023-02-15T03:48:44;1.30;99.90
13944;DHT22;7044;53.286;8.534;2023-02-15T03:51:17;1.30;99.90
13944;DHT22;7044;53.286;8.534;2023-02-15T03:54:03;1.40;99.90
13944;DHT22;7044;53.286;8.534;2023-02-15T03:56:31;1.50;99.90
13944;DHT22;7044;53.286;8.534;2023-02-15T03:58:59;1.60;99.90
13944;DHT22;7044;53.286;8.534;2023-02-15T04:01:51;1.60;99.90
13944;DHT22;7044;53.286;8.534;2023-02-15T04:04:34;1.70;99.90
13944;DHT22;7044;53.286;8.534;2023-02-15T04:07:04;1.70;99.90
13944;DHT22;7044;53.286;8.534;2023-02-15T04:09:31;1.60;99.90
13944;DHT22;7044;53.286;8.534;2023-02-15T04:12:16;1.60;99.90
13944;DHT22;7044;53.286;8.534;2023-02-15T04:14:43;1.70;99.90
13944;DHT22;7044;53.286;8.534;2023-02-15T04:17:28;1.50;99.90
13944;DHT22;7044;53.286;8.534;2023-02-15T04:19:55;1.50;99.90
13944;DHT22;7044;53.286;8.534;2023-02-15T04:22:40;1.50;99.90
13944;DHT22;7044;53.286;8.534;2023-02-15T04:25:25;1.50;99.90
13944;DHT22;7044;53.286;8.534;2023-02-15T04:27:53;1.90;99.90
13944;DHT22;7044;53.286;8.534;2023-02-15T04:30:22;1.30;99.90
13944;DHT22;7044;53.286;8.534;2023-02-15T04:32:49;1.30;99.90
13944;DHT22;7044;53.286;8.534;2023-02-15T04:35:17;1.30;99.90
13944;DHT22;7044;53.286;8.534;2023-02-15T04:37:45;1.20;99.90
13944;DHT22;7044;53.286;8.534;2023-02-15T04:40:13;1.20;99.90
13944;DHT22;7044;53.286;8.534;2023-02-15T04:42:40;1.10;99.90
13944;DHT22;7044;53.286;8.534;2023-02-15T04:45:08;1.20;99.90
13944;DHT22;7044;53.286;8.534;2023-02-15T04:47:34;1.10;99.90
13944;DHT22;7044;53.286;8.534;2023-02-15T04:50:01;1.50;99.90
13944;DHT22;7044;53.286;8.534;2023-02-15T04:52:28;1.30;99.90
13944;DHT22;7044;53.286;8.534;2023-02-15T04:54:56;1.10;99.90
13944;DHT22;7044;53.286;8.534;2023-02-15T04:57:23;1.10;99.90
13944;DHT22;7044;53.286;8.534;2023-02-15T04:59:50;1.10;99.90
13944;DHT22;7044;53.286;8.534;2023-02-15T05:02:16;1.20;99.90
13944;DHT22;7044;53.286;8.534;2023-02-15T05:04:43;1.00;99.90
13944;DHT22;7044;53.286;8.534;2023-02-15T05:07:10;1.10;99.90
13944;DHT22;7044;53.286;8.534;2023-02-15T05:09:37;1.00;99.90
13944;DHT22;7044;53.286;8.534;2023-02-15T05:12:05;1.10;99.90
13944;DHT22;7044;53.286;8.534;2023-02-15T05:14:32;1.00;99.90
13944;DHT22;7044;53.286;8.534;2023-02-15T05:16:59;1.00;99.90
13944;DHT22;7044;53.286;8.534;2023-02-15T05:19:26;0.90;99.90
13944;DHT22;7044;53.286;8.534;2023-02-15T05:21:53;1.00;99.90
13944;DHT22;7044;53.286;8.534;2023-02-15T05:24:20;0.60;99.90
13944;DHT22;7044;53.286;8.534;2023-02-15T05:27:06;0.90;99.90
13944;DHT22;7044;53.286;8.534;2023-02-15T05:29:50;0.90;99.90
13944;DHT22;7044;53.286;8.534;2023-02-15T05:32:17;0.80;99.90
13944;DHT22;7044;53.286;8.534;2023-02-15T05:34:44;0.80;99.90
13944;DHT22;7044;53.286;8.534;2023-02-15T05:37:11;0.80;99.90
13944;DHT22;7044;53.286;8.534;2023-02-15T05:39:37;0.80;99.90
13944;DHT22;7044;53.286;8.534;2023-02-15T05:42:06;0.80;99.90
13944;DHT22;7044;53.286;8.534;2023-02-15T05:44:32;0.70;99.90
13944;DHT22;7044;53.286;8.534;2023-02-15T05:46:59;0.70;99.90
13944;DHT22;7044;53.286;8.534;2023-02-15T05:49:28;0.80;99.90
13944;DHT22;7044;53.286;8.534;2023-02-15T05:51:56;0.70;99.90
13944;DHT22;7044;53.286;8.534;2023-02-15T05:54:22;0.60;99.90
13944;DHT22;7044;53.286;8.534;2023-02-15T05:56:49;0.60;99.90
13944;DHT22;7044;53.286;8.534;2023-02-15T05:59:17;0.70;99.90
13944;DHT22;7044;53.286;8.534;2023-02-15T06:01:44;0.70;99.90
13944;DHT22;7044;53.286;8.534;2023-02-15T06:04:11;0.70;99.90
13944;DHT22;7044;53.286;8.534;2023-02-15T06:06:38;0.70;99.90
13944;DHT22;7044;53.286;8.534;2023-02-15T06:09:05;0.70;99.90
13944;DHT22;7044;53.286;8.534;2023-02-15T06:11:32;0.80;99.90
13944;DHT22;7044;53.286;8.534;2023-02-15T06:13:59;0.70;99.90
13944;DHT22;7044;53.286;8.534;2023-02-15T06:16:27;0.60;99.90
13944;DHT22;7044;53.286;8.534;2023-02-15T06:18:53;0.60;99.90
13944;DHT22;7044;53.286;8.534;2023-02-15T06:21:20;0.60;99.90
13944;DHT22;7044;53.286;8.534;2023-02-15T06:23:47;0.60;99.90
13944;DHT22;7044;53.286;8.534;2023-02-15T06:26:14;0.60;99.90
13944;DHT22;7044;53.286;8.534;2023-02-15T06:28:41;0.70;99.90
13944;DHT22;7044;53.286;8.534;2023-02-15T06:31:07;0.60;99.90
13944;DHT22;7044;53.286;8.534;2023-02-15T06:33:36;0.60;99.90
13944;DHT22;7044;53.286;8.534;2023-02-15T06:36:03;0.50;99.90
13944;DHT22;7044;53.286;8.534;2023-02-15T06:38:30;0.60;99.90
13944;DHT22;7044;53.286;8.534;2023-02-15T06:40:57;0.60;99.90
13944;DHT22;7044;53.286;8.534;2023-02-15T06:43:24;0.70;99.90
13944;DHT22;7044;53.286;8.534;2023-02-15T06:45:51;0.70;99.90
13944;DHT22;7044;53.286;8.534;2023-02-15T06:48:18;0.60;99.90
13944;DHT22;7044;53.286;8.534;2023-02-15T06:50:46;0.70;99.90
13944;DHT22;7044;53.286;8.534;2023-02-15T06:53:12;0.70;99.90
13944;DHT22;7044;53.286;8.534;2023-02-15T06:55:39;0.80;99.90
13944;DHT22;7044;53.286;8.534;2023-02-15T06:58:06;0.70;99.90
13944;DHT22;7044;53.286;8.534;2023-02-15T07:00:33;0.60;99.90
13944;DHT22;7044;53.286;8.534;2023-02-15T07:03:00;0.50;99.90
13944;DHT22;7044;53.286;8.534;2023-02-15T07:05:28;0.50;99.90
13944;DHT22;7044;53.286;8.534;2023-02-15T07:07:57;0.50;99.90
13944;DHT22;7044;53.286;8.534;2023-02-15T07:10:24;0.60;99.90
13944;DHT22;7044;53.286;8.534;2023-02-15T07:12:51;0.60;99.90
13944;DHT22;7044;53.286;8.534;2023-02-15T07:15:19;0.60;99.90
13944;DHT22;7044;53.286;8.534;2023-02-15T07:17:47;0.70;99.90
13944;DHT22;7044;53.286;8.534;2023-02-15T07:20:16;0.80;99.90
13944;DHT22;7044;53.286;8.534;2023-02-15T07:22:44;0.90;99.90
13944;DHT22;7044;53.286;8.534;2023-02-15T07:25:12;0.80;99.90
13944;DHT22;7044;53.286;8.534;2023-02-15T07:27:40;0.80;99.90
13944;DHT22;7044;53.286;8.534;2023-02-15T07:30:08;0.80;99.90
13944;DHT22;7044;53.286;8.534;2023-02-15T07:32:35;0.90;99.90
13944;DHT22;7044;53.286;8.534;2023-02-15T07:35:22;0.90;99.90
13944;DHT22;7044;53.286;8.534;2023-02-15T07:37:49;1.00;99.90
13944;DHT22;7044;53.286;8.534;2023-02-15T07:40:17;0.90;99.90
13944;DHT22;7044;53.286;8.534;2023-02-15T07:42:44;0.90;99.90
13944;DHT22;7044;53.286;8.534;2023-02-15T07:45:11;1.00;99.90
13944;DHT22;7044;53.286;8.534;2023-02-15T07:47:37;1.00;99.90
13944;DHT22;7044;53.286;8.534;2023-02-15T07:50:05;1.10;99.90
13944;DHT22;7044;53.286;8.534;2023-02-15T07:52:32;1.00;99.90
13944;DHT22;7044;53.286;8.534;2023-02-15T07:54:59;1.10;99.90
13944;DHT22;7044;53.286;8.534;2023-02-15T07:57:28;1.10;99.90
13944;DHT22;7044;53.286;8.534;2023-02-15T07:59:55;1.20;99.90
13944;DHT22;7044;53.286;8.534;2023-02-15T08:02:21;1.10;99.90
13944;DHT22;7044;53.286;8.534;2023-02-15T08:04:48;1.10;99.90
13944;DHT22;7044;53.286;8.534;2023-02-15T08:07:15;1.20;99.90
13944;DHT22;7044;53.286;8.534;2023-02-15T08:09:42;1.20;99.90
13944;DHT22;7044;53.286;8.534;2023-02-15T08:12:08;1.30;99.90
13944;DHT22;7044;53.286;8.534;2023-02-15T08:14:37;1.30;99.90
13944;DHT22;7044;53.286;8.534;2023-02-15T08:17:03;1.40;99.90
13944;DHT22;7044;53.286;8.534;2023-02-15T08:19:31;1.50;99.90
13944;DHT22;7044;53.286;8.534;2023-02-15T08:22:01;1.60;99.90
13944;DHT22;7044;53.286;8.534;2023-02-15T08:24:30;1.60;99.90
13944;DHT22;7044;53.286;8.534;2023-02-15T08:26:57;1.70;99.90
13944;DHT22;7044;53.286;8.534;2023-02-15T08:29:26;1.70;99.90
13944;DHT22;7044;53.286;8.534;2023-02-15T08:31:56;1.60;99.90
13944;DHT22;7044;53.286;8.534;2023-02-15T08:34:24;1.60;99.90
13944;DHT22;7044;53.286;8.534;2023-02-15T08:36:51;1.70;99.90
13944;DHT22;7044;53.286;8.534;2023-02-15T08:39:17;1.80;99.90
13944;DHT22;7044;53.286;8.534;2023-02-15T08:41:46;1.80;99.90
13944;DHT22;7044;53.286;8.534;2023-02-15T08:44:15;1.80;99.90
13944;DHT22;7044;53.286;8.534;2023-02-15T08:46:43;1.80;99.90
13944;DHT22;7044;53.286;8.534;2023-02-15T08:49:14;1.80;99.90
13944;DHT22;7044;53.286;8.534;2023-02-15T08:51:42;1.90;99.90
13944;DHT22;7044;53.286;8.534;2023-02-15T08:54:12;1.90;99.90
13944;DHT22;7044;53.286;8.534;2023-02-15T08:56:41;2.00;99.90
13944;DHT22;7044;53.286;8.534;2023-02-15T08:59:12;2.00;99.90
13944;DHT22;7044;53.286;8.534;2023-02-15T09:01:39;2.10;99.90
13944;DHT22;7044;53.286;8.534;2023-02-15T09:04:07;2.20;99.90
13944;DHT22;7044;53.286;8.534;2023-02-15T09:06:37;2.30;99.90
13944;DHT22;7044;53.286;8.534;2023-02-15T09:09:04;2.30;99.90
13944;DHT22;7044;53.286;8.534;2023-02-15T09:11:34;2.30;99.90
13944;DHT22;7044;53.286;8.534;2023-02-15T09:14:04;2.40;99.90
13944;DHT22;7044;53.286;8.534;2023-02-15T09:16:33;2.40;99.90
13944;DHT22;7044;53.286;8.534;2023-02-15T09:19:00;2.50;99.90
13944;DHT22;7044;53.286;8.534;2023-02-15T09:21:30;2.60;99.90
13944;DHT22;7044;53.286;8.534;2023-02-15T09:23:59;2.60;99.90
13944;DHT22;7044;53.286;8.534;2023-02-15T09:26:28;2.70;99.90
13944;DHT22;7044;53.286;8.534;2023-02-15T09:28:56;2.80;99.90
13944;DHT22;7044;53.286;8.534;2023-02-15T09:31:25;2.90;99.90
13944;DHT22;7044;53.286;8.534;2023-02-15T09:33:53;2.90;99.90
13944;DHT22;7044;53.286;8.534;2023-02-15T09:36:22;3.00;99.90
13944;DHT22;7044;53.286;8.534;2023-02-15T09:38:54;3.00;99.90
13944;DHT22;7044;53.286;8.534;2023-02-15T09:41:49;3.10;99.90
13944;DHT22;7044;53.286;8.534;2023-02-15T09:44:27;3.20;99.90
13944;DHT22;7044;53.286;8.534;2023-02-15T09:47:24;3.30;99.90
13944;DHT22;7044;53.286;8.534;2023-02-15T09:49:56;3.30;99.90
13944;DHT22;7044;53.286;8.534;2023-02-15T09:52:37;3.40;99.90
13944;DHT22;7044;53.286;8.534;2023-02-15T09:55:15;3.50;99.90
13944;DHT22;7044;53.286;8.534;2023-02-15T09:57:52;3.60;99.90
13944;DHT22;7044;53.286;8.534;2023-02-15T10:00:25;3.60;99.90
13944;DHT22;7044;53.286;8.534;2023-02-15T10:03:11;3.70;99.90
13944;DHT22;7044;53.286;8.534;2023-02-15T10:05:50;3.80;99.90
13944;DHT22;7044;53.286;8.534;2023-02-15T10:11:24;4.00;99.90
13944;DHT22;7044;53.286;8.534;2023-02-15T10:14:32;4.00;99.90
13944;DHT22;7044;53.286;8.534;2023-02-15T10:17:10;4.10;99.90
13944;DHT22;7044;53.286;8.534;2023-02-15T10:19:43;4.10;99.90
13944;DHT22;7044;53.286;8.534;2023-02-15T10:22:23;4.20;99.90
13944;DHT22;7044;53.286;8.534;2023-02-15T10:25:07;4.30;99.90
13944;DHT22;7044;53.286;8.534;2023-02-15T10:27:44;4.40;99.90
13944;DHT22;7044;53.286;8.534;2023-02-15T10:30:14;4.40;99.90
13944;DHT22;7044;53.286;8.534;2023-02-15T10:32:52;4.50;99.90
13944;DHT22;7044;53.286;8.534;2023-02-15T10:35:25;4.60;99.90
13944;DHT22;7044;53.286;8.534;2023-02-15T10:38:10;4.60;99.90
13944;DHT22;7044;53.286;8.534;2023-02-15T10:40:46;4.70;99.90
13944;DHT22;7044;53.286;8.534;2023-02-15T10:43:34;4.70;99.90
13944;DHT22;7044;53.286;8.534;2023-02-15T10:46:14;4.80;99.90
13944;DHT22;7044;53.286;8.534;2023-02-15T10:49:11;4.80;99.90
13944;DHT22;7044;53.286;8.534;2023-02-15T10:51:53;4.90;99.90
13944;DHT22;7044;53.286;8.534;2023-02-15T10:54:31;4.90;99.90
13944;DHT22;7044;53.286;8.534;2023-02-15T10:57:07;5.00;99.90
13944;DHT22;7044;53.286;8.534;2023-02-15T11:02:57;5.10;99.90
13944;DHT22;7044;53.286;8.534;2023-02-15T11:05:41;5.20;99.90
13944;DHT22;7044;53.286;8.534;2023-02-15T11:08:10;5.30;99.90
13944;DHT22;7044;53.286;8.534;2023-02-15T11:10:42;5.40;99.90
13944;DHT22;7044;53.286;8.534;2023-02-15T11:13:13;5.40;99.90
13944;DHT22;7044;53.286;8.534;2023-02-15T11:15:44;5.40;99.90
13944;DHT22;7044;53.286;8.534;2023-02-15T11:18:16;5.40;99.90
13944;DHT22;7044;53.286;8.534;2023-02-15T11:20:52;5.50;99.90
13944;DHT22;7044;53.286;8.534;2023-02-15T11:23:20;5.60;99.90
13944;DHT22;7044;53.286;8.534;2023-02-15T11:25:56;5.60;99.90
13944;DHT22;7044;53.286;8.534;2023-02-15T11:28:29;5.70;99.90
13944;DHT22;7044;53.286;8.534;2023-02-15T11:31:00;5.70;99.90
13944;DHT22;7044;53.286;8.534;2023-02-15T11:33:36;5.80;99.90
13944;DHT22;7044;53.286;8.534;2023-02-15T11:36:07;5.90;99.90
13944;DHT22;7044;53.286;8.534;2023-02-15T11:38:36;6.00;99.90
13944;DHT22;7044;53.286;8.534;2023-02-15T11:41:09;6.00;99.90
13944;DHT22;7044;53.286;8.534;2023-02-15T11:43:39;6.10;99.90
13944;DHT22;7044;53.286;8.534;2023-02-15T11:46:11;6.20;99.90
13944;DHT22;7044;53.286;8.534;2023-02-15T11:48:41;6.30;99.90
13944;DHT22;7044;53.286;8.534;2023-02-15T11:51:12;6.30;99.90
13944;DHT22;7044;53.286;8.534;2023-02-15T11:53:41;6.40;99.90
13944;DHT22;7044;53.286;8.534;2023-02-15T11:56:14;6.40;99.90
13944;DHT22;7044;53.286;8.534;2023-02-15T11:58:44;6.50;99.90
13944;DHT22;7044;53.286;8.534;2023-02-15T12:01:16;6.50;99.90
13944;DHT22;7044;53.286;8.534;2023-02-15T12:03:49;6.50;99.90
13944;DHT22;7044;53.286;8.534;2023-02-15T12:06:21;6.60;99.90
13944;DHT22;7044;53.286;8.534;2023-02-15T12:08:55;6.60;99.90
13944;DHT22;7044;53.286;8.534;2023-02-15T12:11:29;6.70;99.90
13944;DHT22;7044;53.286;8.534;2023-02-15T12:13:59;6.80;99.90
13944;DHT22;7044;53.286;8.534;2023-02-15T12:16:28;6.80;99.90
13944;DHT22;7044;53.286;8.534;2023-02-15T12:18:58;6.90;99.90
13944;DHT22;7044;53.286;8.534;2023-02-15T12:21:28;6.90;99.90
13944;DHT22;7044;53.286;8.534;2023-02-15T12:24:00;6.90;99.90
13944;DHT22;7044;53.286;8.534;2023-02-15T12:26:31;7.00;99.90
13944;DHT22;7044;53.286;8.534;2023-02-15T12:29:01;7.00;99.90
13944;DHT22;7044;53.286;8.534;2023-02-15T12:31:37;7.10;99.90
13944;DHT22;7044;53.286;8.534;2023-02-15T12:34:12;7.10;99.90
13944;DHT22;7044;53.286;8.534;2023-02-15T12:36:43;7.10;99.90
13944;DHT22;7044;53.286;8.534;2023-02-15T12:39:22;7.20;99.90
13944;DHT22;7044;53.286;8.534;2023-02-15T12:42:00;7.20;99.90
13944;DHT22;7044;53.286;8.534;2023-02-15T12:44:30;7.30;99.90
13944;DHT22;7044;53.286;8.534;2023-02-15T12:46:59;7.30;99.90
13944;DHT22;7044;53.286;8.534;2023-02-15T12:49:29;7.20;99.90
13944;DHT22;7044;53.286;8.534;2023-02-15T12:51:57;7.30;99.90
13944;DHT22;7044;53.286;8.534;2023-02-15T12:54:36;7.40;99.90
13944;DHT22;7044;53.286;8.534;2023-02-15T12:57:21;7.40;99.90
13944;DHT22;7044;53.286;8.534;2023-02-15T12:59:51;7.50;99.90
13944;DHT22;7044;53.286;8.534;2023-02-15T13:02:25;7.50;99.90
13944;DHT22;7044;53.286;8.534;2023-02-15T13:04:55;7.50;99.90
13944;DHT22;7044;53.286;8.534;2023-02-15T13:07:25;7.50;99.90
13944;DHT22;7044;53.286;8.534;2023-02-15T13:09:52;7.60;99.90
13944;DHT22;7044;53.286;8.534;2023-02-15T13:12:22;7.70;99.90
13944;DHT22;7044;53.286;8.534;2023-02-15T13:14:53;7.70;99.90
13944;DHT22;7044;53.286;8.534;2023-02-15T13:17:25;7.80;99.90
13944;DHT22;7044;53.286;8.534;2023-02-15T13:19:59;7.70;99.90
13944;DHT22;7044;53.286;8.534;2023-02-15T13:22:31;7.80;99.90
13944;DHT22;7044;53.286;8.534;2023-02-15T13:25:04;7.90;99.90
13944;DHT22;7044;53.286;8.534;2023-02-15T13:27:37;7.90;99.90
13944;DHT22;7044;53.286;8.534;2023-02-15T13:30:15;7.90;99.90
13944;DHT22;7044;53.286;8.534;2023-02-15T13:32:45;7.90;99.90
13944;DHT22;7044;53.286;8.534;2023-02-15T13:35:17;8.00;99.90
13944;DHT22;7044;53.286;8.534;2023-02-15T13:38:35;8.00;99.90
13944;DHT22;7044;53.286;8.534;2023-02-15T13:41:10;8.10;99.90
13944;DHT22;7044;53.286;8.534;2023-02-15T13:43:47;8.00;99.90
13944;DHT22;7044;53.286;8.534;2023-02-15T13:46:27;8.10;99.90
13944;DHT22;7044;53.286;8.534;2023-02-15T13:49:09;8.10;99.90
13944;DHT22;7044;53.286;8.534;2023-02-15T13:51:45;8.10;99.90
13944;DHT22;7044;53.286;8.534;2023-02-15T14:00:17;8.30;99.90
13944;DHT22;7044;53.286;8.534;2023-02-15T14:05:53;8.40;99.90
13944;DHT22;7044;53.286;8.534;2023-02-15T14:08:35;8.40;99.90
13944;DHT22;7044;53.286;8.534;2023-02-15T14:11:07;8.50;99.90
13944;DHT22;7044;53.286;8.534;2023-02-15T14:13:58;8.50;99.90
13944;DHT22;7044;53.286;8.534;2023-02-15T14:16:36;8.50;99.90
13944;DHT22;7044;53.286;8.534;2023-02-15T14:19:14;8.40;99.90
13944;DHT22;7044;53.286;8.534;2023-02-15T14:21:47;8.40;99.90
13944;DHT22;7044;53.286;8.534;2023-02-15T14:24:27;8.40;99.90
13944;DHT22;7044;53.286;8.534;2023-02-15T14:27:03;8.40;99.90
13944;DHT22;7044;53.286;8.534;2023-02-15T14:29:45;8.40;99.90
13944;DHT22;7044;53.286;8.534;2023-02-15T14:32:18;8.40;99.90
13944;DHT22;7044;53.286;8.534;2023-02-15T14:34:50;8.50;99.90
13944;DHT22;7044;53.286;8.534;2023-02-15T14:37:23;8.40;99.90
13944;DHT22;7044;53.286;8.534;2023-02-15T14:39:57;8.50;99.90
13944;DHT22;7044;53.286;8.534;2023-02-15T14:42:50;8.50;99.90
13944;DHT22;7044;53.286;8.534;2023-02-15T14:45:22;8.50;99.90
13944;DHT22;7044;53.286;8.534;2023-02-15T14:48:01;8.40;99.90
13944;DHT22;7044;53.286;8.534;2023-02-15T14:50:42;8.40;99.90
13944;DHT22;7044;53.286;8.534;2023-02-15T14:53:42;8.40;99.90
13944;DHT22;7044;53.286;8.534;2023-02-15T14:56:22;8.40;99.90
13944;DHT22;7044;53.286;8.534;2023-02-15T14:59:12;8.40;99.90
13944;DHT22;7044;53.286;8.534;2023-02-15T15:01:40;8.40;99.90
13944;DHT22;7044;53.286;8.534;2023-02-15T15:04:10;8.40;99.90
13944;DHT22;7044;53.286;8.534;2023-02-15T15:06:41;8.40;99.90
13944;DHT22;7044;53.286;8.534;2023-02-15T15:09:13;8.40;99.90
13944;DHT22;7044;53.286;8.534;2023-02-15T15:11:48;8.40;99.90
13944;DHT22;7044;53.286;8.534;2023-02-15T15:14:37;8.40;99.90
13944;DHT22;7044;53.286;8.534;2023-02-15T15:17:06;8.30;99.90
13944;DHT22;7044;53.286;8.534;2023-02-15T15:20:05;8.30;99.90
13944;DHT22;7044;53.286;8.534;2023-02-15T15:22:40;8.20;99.90
13944;DHT22;7044;53.286;8.534;2023-02-15T15:25:12;8.20;99.90
13944;DHT22;7044;53.286;8.534;2023-02-15T15:28:00;8.20;99.90
13944;DHT22;7044;53.286;8.534;2023-02-15T15:30:51;8.10;99.90
13944;DHT22;7044;53.286;8.534;2023-02-15T15:42:43;8.00;99.90
13944;DHT22;7044;53.286;8.534;2023-02-15T15:45:38;7.90;99.90
13944;DHT22;7044;53.286;8.534;2023-02-15T15:48:26;7.80;99.90
13944;DHT22;7044;53.286;8.534;2023-02-15T15:50:58;7.80;99.90
13944;DHT22;7044;53.286;8.534;2023-02-15T15:53:27;7.70;99.90
13944;DHT22;7044;53.286;8.534;2023-02-15T15:55:58;7.70;99.90
13944;DHT22;7044;53.286;8.534;2023-02-15T15:58:27;7.60;99.90
13944;DHT22;7044;53.286;8.534;2023-02-15T16:01:00;7.60;99.90
13944;DHT22;7044;53.286;8.534;2023-02-15T16:03:29;7.50;99.90
13944;DHT22;7044;53.286;8.534;2023-02-15T16:05:56;7.50;99.90
13944;DHT22;7044;53.286;8.534;2023-02-15T16:08:27;7.50;99.90
13944;DHT22;7044;53.286;8.534;2023-02-15T16:10:55;7.50;99.90
13944;DHT22;7044;53.286;8.534;2023-02-15T16:13:22;7.40;99.90
13944;DHT22;7044;53.286;8.534;2023-02-15T16:15:51;7.30;99.90
13944;DHT22;7044;53.286;8.534;2023-02-15T16:18:22;7.30;99.90
13944;DHT22;7044;53.286;8.534;2023-02-15T16:20:52;7.30;99.90
13944;DHT22;7044;53.286;8.534;2023-02-15T16:23:57;7.30;99.90
13944;DHT22;7044;53.286;8.534;2023-02-15T16:26:48;7.20;99.90
13944;DHT22;7044;53.286;8.534;2023-02-15T16:29:27;7.20;99.90
13944;DHT22;7044;53.286;8.534;2023-02-15T16:31:59;7.20;99.90
13944;DHT22;7044;53.286;8.534;2023-02-15T16:34:28;7.10;99.90
13944;DHT22;7044;53.286;8.534;2023-02-15T16:37:13;7.10;99.90
13944;DHT22;7044;53.286;8.534;2023-02-15T16:39:41;7.10;99.90
13944;DHT22;7044;53.286;8.534;2023-02-15T16:42:09;7.10;99.90
13944;DHT22;7044;53.286;8.534;2023-02-15T16:44:37;7.10;99.90
13944;DHT22;7044;53.286;8.534;2023-02-15T16:47:09;7.00;99.90
13944;DHT22;7044;53.286;8.534;2023-02-15T16:49:44;7.00;99.90
13944;DHT22;7044;53.286;8.534;2023-02-15T16:52:15;7.00;99.90
13944;DHT22;7044;53.286;8.534;2023-02-15T16:54:45;7.00;99.90
13944;DHT22;7044;53.286;8.534;2023-02-15T16:57:18;6.90;99.90
13944;DHT22;7044;53.286;8.534;2023-02-15T16:59:47;6.80;99.90
13944;DHT22;7044;53.286;8.534;2023-02-15T17:02:17;6.80;99.90
13944;DHT22;7044;53.286;8.534;2023-02-15T17:07:50;6.70;99.90
13944;DHT22;7044;53.286;8.534;2023-02-15T17:10:29;6.70;99.90
13944;DHT22;7044;53.286;8.534;2023-02-15T17:13:01;6.60;99.90